Home > Products > Valid Products > TAF

000
FTUS45 KPIH 241100
TAFPIH
TAF
KPIH 241120Z 2412/2512 18012KT P6SM BKN150
     FM241800 24020G30KT P6SM VCSH OVC080
     FM250200 22010KT P6SM VCSH OVC050
     FM250800 20008KT P6SM VCSH OVC035=



000
FTUS45 KPIH 241100
TAFIDA
TAF
KIDA 241120Z 2412/2512 21011KT P6SM BKN150
     FM241800 21020G30KT P6SM VCSH OVC080
     FM250300 19010KT P6SM VCSH OVC050
     FM250800 VRB05KT P6SM VCSH OVC035=



000
FTUS45 KPIH 241100
TAFBYI
TAF
KBYI 241120Z 2412/2512 21007KT P6SM BKN150
     FM241900 27010G20KT P6SM VCSH OVC080
     FM250200 23007KT P6SM VCSH OVC050
     FM250800 VRB05KT P6SM VCSH OVC035=



000
FTUS45 KPIH 241100
TAFSUN
TAF
KSUN 241120Z 2412/2512 32010KT P6SM VCSH OVC070
     FM241600 32007KT P6SM -SHRA SCT025 OVC040
     FM241900 15008KT P6SM -SHRA OVC030
     FM250300 33007KT P6SM VCSH OVC050
     FM250700 VRB05KT 4SM -RA OVC030
      AMD LTD TO CLD VIS AND WIND TIL 241300=



000
FTUS45 KPIH 240500
TAFPIH
TAF
KPIH 240520Z 2406/2506 21011KT P6SM BKN150
     FM241800 24020G30KT P6SM VCSH OVC080
     FM250200 22010KT P6SM VCSH OVC050=



000
FTUS45 KPIH 240500
TAFBYI
TAF
KBYI 240520Z 2406/2506 21007KT P6SM BKN150
     FM241900 27010G20KT P6SM VCSH OVC080
     FM250200 23007KT P6SM VCSH OVC050=



000
FTUS45 KPIH 240500
TAFIDA
TAF
KIDA 240520Z 2406/2506 21011KT P6SM BKN150
     FM241800 21020G30KT P6SM VCSH OVC080
     FM250300 19010KT P6SM VCSH OVC050=



000
FTUS45 KPIH 240500
TAFSUN
TAF
KSUN 240520Z 2406/2506 32010KT P6SM SCT080 OVC120
     FM241700 32007KT P6SM -SHRA VCSH SCT025 OVC040
     FM241900 15008KT P6SM -SHRA OVC030
     FM250300 33007KT P6SM VCSH OVC050
      AMD LTD TO CLD VIS AND WIND TIL 241300=



000
FTUS45 KPIH 232300
TAFBYI
TAF
KBYI 232320Z 2400/2424 27010G18KT P6SM OVC080
     FM240200 23009KT P6SM OVC120
     FM241900 27010G20KT P6SM VCSH OVC080=



000
FTUS45 KPIH 232300
TAFIDA
TAF
KIDA 232320Z 2400/2424 22020G30KT P6SM VCSH OVC080
     FM240200 21011KT P6SM OVC120
     FM241800 21020G30KT P6SM VCSH OVC080=



000
FTUS45 KPIH 232300
TAFSUN
TAF
KSUN 232320Z 2400/2424 23009KT P6SM VCSH OVC050
     FM240300 32010KT P6SM BKN090
     FM241500 32007KT P6SM VCSH SCT025 OVC040
     FM241900 15008KT P6SM -SHRA OVC030
      AMD LTD TO CLD VIS AND WIND 2405/2413=



000
FTUS45 KPIH 232300
TAFPIH
TAF
KPIH 232320Z 2400/2424 25020G30KT P6SM BKN080
     FM240200 24011KT P6SM OVC120
     FM241800 24020G30KT P6SM VCSH OVC080=



000
FTUS45 KPIH 232000 AAA
TAFBYI
TAF AMD
KBYI 232042Z 2321/2418 27012G22KT P6SM VCSH BKN050
     FM240300 23009KT P6SM BKN100=



000
FTUS45 KPIH 232000 CCA
TAFPIH
TAF COR
KPIH 232042Z 2321/2418 26020G30KT P6SM VCSH SCT045
     FM240300 22014KT P6SM SCT100=



000
FTUS45 KPIH 232000 AAB
TAFIDA
TAF AMD
KIDA 232042Z 2321/2418 21014G24KT P6SM VCSH SCT080 BKN100
     FM240300 21014KT P6SM BKN150=



000
FTUS45 KPIH 232000 AAA
TAFPIH
TAF AMD
KPIH 232041Z 2321/2418 26020G30KT P6SM SCT045
     FM240300 22014KT P6SM SCT100=



000
FTUS45 KPIH 231800 AAA
TAFIDA
TAF AMD
KIDA 231852Z 2319/2418 22015G25KT P6SM SCT060 BKN070
     FM232000 24023G33KT P6SM SCT030 BKN110
     FM240300 21014KT P6SM BKN150=



000
FTUS45 KPIH 231700 AAA
TAFSUN
TAF AMD
KSUN 231756Z 2318/2418 17010KT P6SM VCSH SCT050 BKN070
      TEMPO 2318/2322 26015G25KT
     FM240300 32010KT P6SM BKN090
     FM241500 32007KT P6SM VCSH SCT025 OVC040=



000
FTUS45 KPIH 231700
TAFBYI
TAF
KBYI 231720Z 2318/2418 25017G27KT P6SM SCT040
     FM232000 27012G22KT P6SM SCT040 SCT120
     FM240300 23009KT P6SM BKN100=



000
FTUS45 KPIH 231700
TAFSUN
TAF
KSUN 231720Z 2318/2418 17010KT P6SM VCSH SCT050 BKN070
     FM240300 32010KT P6SM BKN090
     FM241500 32007KT P6SM VCSH SCT025 OVC040=



000
FTUS45 KPIH 231700
TAFPIH
TAF
KPIH 231720Z 2318/2418 25018G28KT P6SM SCT030
     FM232000 26025G35KT P6SM SCT030 SCT100
     FM240300 22014KT P6SM SCT100=



000
FTUS45 KPIH 231700
TAFIDA
TAF
KIDA 231720Z 2318/2418 30010KT P6SM VCSH SCT030 BKN050
     FM232000 24023G33KT P6SM SCT030 BKN110
     FM240300 21014KT P6SM BKN150=



000
FTUS45 KPIH 231400 AAA
TAFSUN
TAF AMD
KSUN 231456Z 2315/2412 VRB06KT P6SM SCT100
     FM231600 17010KT P6SM VCSH OVC070
     FM240300 32010KT P6SM OVC090=



000
FTUS45 KPIH 231200 AAA
TAFIDA
TAF AMD
KIDA 231227Z 2312/2412 21020G30KT P6SM VCSH OVC015
      TEMPO 2312/2315 3SM -SN OVC008
     FM231600 22023G33KT P6SM BKN120
     FM240300 21014KT P6SM BKN120=



000
FTUS45 KPIH 231200 AAA
TAFPIH
TAF AMD
KPIH 231226Z 2312/2412 22018G28KT P6SM SCT020 SCT120
     FM231600 24025G35KT P6SM SCT120
     FM240300 22014KT P6SM SCT150=



000
FTUS45 KPIH 231100
TAFBYI
TAF
KBYI 231120Z 2312/2412 25017G27KT P6SM SCT120
     FM232000 27012G22KT P6SM SCT120
     FM240300 23009KT P6SM BKN150=



000
FTUS45 KPIH 231100
TAFIDA
TAF
KIDA 231120Z 2312/2412 21020G30KT P6SM OVC015
     FM231600 22023G33KT P6SM BKN120
     FM240300 21014KT P6SM BKN120=



000
FTUS45 KPIH 231100
TAFSUN
TAF
KSUN 231120Z 2312/2412 32014KT P6SM SCT100
     FM231600 17010KT P6SM VCSH OVC070
     FM240300 32010KT P6SM OVC090
      AMD LTD TO CLD VIS AND WIND TIL 231300=



000
FTUS45 KPIH 231100
TAFPIH
TAF
KPIH 231120Z 2312/2412 22018G28KT P6SM SCT120
     FM231600 24025G35KT P6SM SCT120
     FM240300 22014KT P6SM SCT150=



000
FTUS45 KPIH 230900 AAA
TAFIDA
TAF AMD
KIDA 230905Z 2309/2406 21020G30KT P6SM VCSH OVC015
     FM231200 21020G28KT P6SM SCT020 OVC035
     FM231900 22023G33KT P6SM BKN120
     FM240300 21014KT P6SM BKN150=



000
FTUS45 KPIH 230900 AAA
TAFBYI
TAF AMD
KBYI 230905Z 2309/2406 25017G27KT P6SM SCT080
     FM231800 27015G25KT P6SM BKN120
     FM240300 23009KT P6SM BKN150=



000
FTUS45 KPIH 230900 AAB
TAFPIH
TAF AMD
KPIH 230904Z 2309/2406 22020G30KT P6SM OVC020
     FM231300 25025G35KT P6SM BKN120
     FM240300 22014KT P6SM BKN150=



000
FTUS45 KPIH 230600 AAA
TAFPIH
TAF AMD
KPIH 230627Z 2306/2406 22020G30KT P6SM VCSH OVC050
      TEMPO 2306/2310 OVC015
     FM231800 25025G35KT P6SM BKN120
     FM240300 22014KT P6SM BKN150=



000
FTUS45 KPIH 230500
TAFPIH
TAF
KPIH 230520Z 2306/2406 21020G30KT P6SM VCSH OVC050
      TEMPO 2306/2310 OVC025
     FM231800 25025G35KT P6SM BKN120
     FM240300 22014KT P6SM BKN150=



000
FTUS45 KPIH 230500
TAFBYI
TAF
KBYI 230520Z 2306/2406 23014KT P6SM OVC080
     FM231800 27015G25KT P6SM BKN120
     FM240300 23009KT P6SM BKN150=



000
FTUS45 KPIH 230500
TAFSUN
TAF
KSUN 230520Z 2306/2406 12011KT P6SM SCT040 OVC080
     FM230900 32011KT P6SM BKN150
     FM231900 23012G24KT P6SM VCSH OVC070
     FM240300 VRB06KT P6SM OVC090
      AMD LTD TO CLD VIS AND WIND TIL 231300=



000
FTUS45 KPIH 230500
TAFIDA
TAF
KIDA 230520Z 2306/2406 21020G29KT P6SM -RA OVC015
      TEMPO 2306/2310 OVC008
     FM231100 21020G28KT P6SM SCT020 OVC035
     FM231900 22023G33KT P6SM BKN120
     FM240300 21014KT P6SM BKN150=



000
FTUS45 KPIH 230300 AAB
TAFIDA
TAF AMD
KIDA 230358Z 2304/2324 22015G25KT P6SM -RA OVC012
     FM230600 21023G33KT P6SM VCSH SCT020 OVC035
     FM231900 22023G33KT P6SM BKN120=



000
FTUS45 KPIH 230300 AAA
TAFPIH
TAF AMD
KPIH 230357Z 2304/2324 20015G25KT P6SM VCSH OVC050
     FM230500 21024G34KT P6SM VCSH OVC040
     FM231900 25024G34KT P6SM BKN120=



000
FTUS45 KPIH 230200 AAA
TAFSUN
TAF AMD
KSUN 230208Z 2302/2324 12011KT P6SM OVC080
     FM230900 32011KT P6SM BKN150
     FM231900 23012G24KT P6SM BKN120
      AMD LTD TO CLD VIS AND WIND 2305/2313=



000
FTUS45 KPIH 230200 AAA
TAFIDA
TAF AMD
KIDA 230206Z 2302/2324 22020G30KT P6SM -RA OVC022
      TEMPO 2302/2306 OVC015
     FM230600 21023G33KT P6SM VCSH SCT020 OVC035
     FM231900 22023G33KT P6SM BKN120=



000
FTUS45 KPIH 230200 AAA
TAFBYI
TAF AMD
KBYI 230206Z 2302/2324 22011KT P6SM OVC050
     FM230600 25020G30KT P6SM SCT035
     FM231800 27015G25KT P6SM BKN120=



000
FTUS45 KPIH 230200 AAA
TAFPIH
TAF AMD
KPIH 230205Z 2302/2324 23015G25KT P6SM -RA OVC025
      TEMPO 2302/2305 OVC015
     FM230500 23024G34KT P6SM VCSH OVC040
     FM231900 25024G34KT P6SM BKN120=



000
FTUS45 KPIH 222300
TAFIDA
TAF
KIDA 222320Z 2300/2324 22020G30KT P6SM -RA OVC040
      TEMPO 2300/2304 4SM RA BR OVC018
     FM230500 21023G33KT P6SM VCSH SCT020 OVC035
     FM231900 22023G33KT P6SM BKN120=



000
FTUS45 KPIH 222300
TAFBYI
TAF
KBYI 222320Z 2300/2324 25015G25KT P6SM -RA OVC035
      TEMPO 2300/2303 6SM RA OVC015
     FM230500 25020G30KT P6SM SCT035
     FM231800 27015G25KT P6SM BKN120=



000
FTUS45 KPIH 222300
TAFPIH
TAF
KPIH 222320Z 2300/2324 24023G33KT P6SM -RA OVC025
      TEMPO 2300/2304 4SM RA BR OVC015
     FM230500 23024G34KT P6SM VCSH OVC040
     FM231900 25024G34KT P6SM BKN120=



000
FTUS45 KPIH 222300
TAFSUN
TAF
KSUN 222320Z 2300/2324 31011KT P6SM VCSH OVC060
      TEMPO 2300/2303 -RA OVC020
     FM230300 32010KT P6SM VCSH OVC035
     FM230900 32011KT P6SM BKN150
     FM231900 23012G24KT P6SM BKN120
      AMD LTD TO CLD VIS AND WIND 2305/2313=



000
FTUS45 KPIH 222200 AAB
TAFBYI
TAF AMD
KBYI 222203Z 2222/2318 27015G25KT P6SM -RA OVC025
     FM230100 27015G25KT P6SM -RA OVC035
     FM230500 25025G35KT P6SM SCT035=



000
FTUS45 KPIH 222100 CCA
TAFPIH
TAF COR
KPIH 222139Z 2222/2318 24027G37KT P6SM -RA VCTS OVC035CB
      TEMPO 2222/2224 3SM RA BR OVC025
     FM230900 22026G36KT P6SM VCSH SCT035 BKN060=



000
FTUS45 KPIH 222100 AAA
TAFPIH
TAF AMD
KPIH 222137Z 2222/2318 24027G37KT P6SM -RA OVC035
      TEMPO 2222/2224 3SM RA BR OVC025
     FM230900 22026G36KT P6SM VCSH SCT035 BKN060=



000
FTUS45 KPIH 222100 AAA
TAFIDA
TAF AMD
KIDA 222111Z 2221/2318 22025G35KT P6SM -SHRA SCT020 BKN035CB
     FM230200 21023G33KT P6SM -SHRA SCT020 BKN035=



000
FTUS45 KPIH 222100 AAA
TAFPIH
TAF AMD
KPIH 222105Z 2221/2318 24027G37KT P6SM -SHRA VCTS BKN035CB
      TEMPO 2221/2223 3SM -TSRA BR BKN035CB
     FM230900 22026G36KT P6SM VCSH SCT035 BKN060=



000
FTUS45 KPIH 222000 AAB
TAFSUN
TAF AMD
KSUN 222000Z 2220/2318 22010G20KT P6SM -SHRA VCTS BKN035CB
      TEMPO 2220/2224 30010G20KT
     FM230300 32010KT P6SM SCT035=



000
FTUS45 KPIH 221900 AAA
TAFBYI
TAF AMD
KBYI 221958Z 2220/2318 27025G40KT P6SM -SHRA VCTS BKN035CB
     FM230500 25025G35KT P6SM SCT035=



000
FTUS45 KPIH 221900 AAA
TAFSUN
TAF AMD
KSUN 221905Z 2219/2318 24015G22KT P6SM -SHRA VCTS BKN035CB
     FM222300 22011KT P6SM VCSH SCT035 BKN060
     FM230300 32010KT P6SM SCT035=



000
FTUS45 KPIH 221700
TAFBYI
TAF
KBYI 221723Z 2218/2318 26015G25KT P6SM VCSH SCT080 BKN110
     FM222000 26020G30KT P6SM -SHRA VCTS BKN035CB
     FM230500 25025G35KT P6SM SCT035=



000
FTUS45 KPIH 221700
TAFPIH
TAF
KPIH 221723Z 2218/2318 23017G27KT P6SM VCSH SCT040 BKN120
     FM222100 24027G37KT P6SM -SHRA VCTS BKN035CB
     FM230900 22026G36KT P6SM VCSH SCT035 BKN060=



000
FTUS45 KPIH 221700
TAFIDA
TAF
KIDA 221723Z 2218/2318 17017G27KT P6SM VCSH SCT060 BKN120
     FM221900 23015G25KT P6SM VCSH SCT070 BKN120
     FM222200 23020G30KT P6SM -SHRA VCTS SCT020 BKN035CB
     FM230200 21023G33KT P6SM -SHRA SCT020 BKN035=



000
FTUS45 KPIH 221700
TAFSUN
TAF
KSUN 221723Z 2218/2318 32007KT P6SM VCSH SCT060 BKN100
     FM221900 15007KT P6SM -SHRA VCTS BKN035CB
     FM222300 22011KT P6SM VCSH SCT035 BKN060
     FM230300 32010KT P6SM SCT035=



000
FTUS45 KPIH 221500 AAA
TAFPIH
TAF AMD
KPIH 221558Z 2216/2312 16023G33KT P6SM VCSH SCT070 BKN110
     FM221900 23017G27KT P6SM VCSH OVC070
     FM222200 23028G38KT P6SM -SHRA OVC035
     FM230500 22025G35KT P6SM SCT030=



000
FTUS45 KPIH 221500 AAB
TAFIDA
TAF AMD
KIDA 221558Z 2216/2312 12013G23KT P6SM VCSH SCT060 BKN120
     FM221900 22015G25KT P6SM VCSH OVC070
     FM222200 22022G32KT P6SM -SHRA OVC030=



000
FTUS45 KPIH 221500 AAA
TAFBYI
TAF AMD
KBYI 221557Z 2216/2312 26012G22KT P6SM VCSH SCT080 BKN110
     FM222000 26020G30KT P6SM -SHRA OVC035
     FM230300 25025G35KT P6SM SCT035=



000
FTUS45 KPIH 221500 AAD
TAFPIH
TAF AMD
KPIH 221518Z 2215/2312 11010G20KT P6SM VCSH BKN070
     FM221700 19012KT P6SM VCSH BKN070
     FM221900 23017G27KT P6SM VCSH OVC070
     FM222200 23028G38KT P6SM -SHRA OVC035
     FM230500 22025G35KT P6SM SCT030=



000
FTUS45 KPIH 221400 AAC
TAFPIH
TAF AMD
KPIH 221434Z 2215/2312 08009KT P6SM VCSH BKN070
     FM221700 19012KT P6SM VCSH BKN070
     FM221900 23017G27KT P6SM VCSH OVC070
     FM222200 23028G38KT P6SM -SHRA OVC035
     FM230500 22025G35KT P6SM SCT030=



000
FTUS45 KPIH 221400 AAA
TAFIDA
TAF AMD
KIDA 221434Z 2215/2312 04006KT P6SM VCSH BKN060 OVC090
     FM221700 13012KT P6SM VCSH OVC070
     FM221900 22015G25KT P6SM VCSH OVC070
     FM222200 22022G32KT P6SM -SHRA OVC030=



000
FTUS45 KPIH 221200 AAB
TAFPIH
TAF AMD
KPIH 221253Z 2213/2312 19012KT P6SM VCSH BKN070
      TEMPO 2213/2215 33010KT
     FM221800 23017G27KT P6SM VCSH OVC070
     FM222200 23028G38KT P6SM -SHRA OVC035
     FM230500 22025G35KT P6SM SCT030=



000
FTUS45 KPIH 221200 AAA
TAFPIH
TAF AMD
KPIH 221219Z 2212/2312 19012KT P6SM VCSH BKN080
     FM221800 23017G27KT P6SM VCSH OVC070
     FM222200 23028G38KT P6SM -SHRA OVC035
     FM230500 22025G35KT P6SM SCT030=



000
FTUS45 KPIH 221100 CCA
TAFSUN
TAF COR
KSUN 221147Z 2212/2312 32006KT P6SM -SHRA BKN040 OVC070
     FM221800 15007KT P6SM -SHRA SCT030 OVC040
     FM222100 22011KT P6SM -SHRA OVC030
     FM230300 32010KT P6SM SCT030
      AMD LTD TO CLD VIS AND WIND TIL 221300=



000
FTUS45 KPIH 221100
TAFPIH
TAF
KPIH 221120Z 2212/2312 14012KT P6SM VCSH BKN100
     FM221800 23017G27KT P6SM VCSH OVC070
     FM222200 23028G38KT P6SM -SHRA OVC035
     FM230500 22025G35KT P6SM SCT030=



000
FTUS45 KPIH 221100
TAFSUN
TAF
KSUN 221120Z 2212/2312 32006KT P6SM -SHRA SCT040 OVC070
     FM221800 15007KT P6SM -SHRA SCT030 OVC040
     FM222100 22011KT P6SM -SHRA OVC030
     FM230300 32010KT P6SM SCT030
      AMD LTD TO CLD VIS AND WIND TIL 221300=



000
FTUS45 KPIH 221100
TAFIDA
TAF
KIDA 221120Z 2212/2312 13012KT P6SM VCSH OVC070
     FM221800 22015G25KT P6SM VCSH OVC070
     FM222200 22022G32KT P6SM -SHRA OVC030=



000
FTUS45 KPIH 221100
TAFBYI
TAF
KBYI 221120Z 2212/2312 VRB05KT P6SM VCSH BKN100
     FM221800 26012G22KT P6SM VCSH OVC070
     FM222000 26020G30KT P6SM -SHRA OVC035
     FM230300 25025G35KT P6SM SCT035=



000
FTUS45 KPIH 220500
TAFPIH
TAF
KPIH 220520Z 2206/2306 22011KT P6SM VCSH OVC090
     FM221900 23025G35KT P6SM -SHRA OVC045=



000
FTUS45 KPIH 220500
TAFIDA
TAF
KIDA 220520Z 2206/2306 20009KT P6SM VCSH OVC080
     FM221900 22022G32KT P6SM -SHRA OVC040=



000
FTUS45 KPIH 220500
TAFBYI
TAF
KBYI 220520Z 2206/2306 25011KT P6SM VCSH OVC100
     FM221800 27020G30KT P6SM -SHRA OVC040=



000
FTUS45 KPIH 220500
TAFSUN
TAF
KSUN 220520Z 2206/2306 32008KT P6SM VCSH OVC080
     FM221500 VRB06KT P6SM -SHRA SCT030 OVC040
     FM222100 22011KT P6SM -SHRA OVC030
     FM230300 32010KT P6SM -SHRASN OVC040
      AMD LTD TO CLD VIS AND WIND TIL 221300=



000
FTUS45 KPIH 220300 AAA
TAFPIH
TAF AMD
KPIH 220302Z 2203/2224 18014KT P6SM OVC150
     FM220600 19011KT P6SM OVC090
     FM221900 23025G35KT P6SM VCSH OVC045=



000
FTUS45 KPIH 212300
TAFSUN
TAF
KSUN 212320Z 2200/2224 12008KT P6SM OVC150
     FM220400 32009KT P6SM VCSH BKN090
     FM221500 VRB06KT P6SM -SHRA SCT030 BKN060
     FM221900 22011KT P6SM -SHRA OVC040
      AMD LTD TO CLD VIS AND WIND 2205/2213=



000
FTUS45 KPIH 212300
TAFPIH
TAF
KPIH 212320Z 2200/2224 22010KT P6SM OVC150
     FM220600 19011KT P6SM BKN090
     FM221900 23025G35KT P6SM VCSH OVC045=



000
FTUS45 KPIH 212300
TAFIDA
TAF
KIDA 212320Z 2200/2224 20009KT P6SM OVC150
     FM221800 22022G32KT P6SM VCSH OVC040=



000
FTUS45 KPIH 212300
TAFBYI
TAF
KBYI 212320Z 2200/2224 22008KT P6SM OVC150
     FM221800 27020G30KT P6SM VCSH OVC040=



000
FTUS45 KPIH 211700
TAFSUN
TAF
KSUN 211720Z 2118/2218 15008KT P6SM SCT200
     FM220400 32007KT P6SM VCSH BKN090
     FM221500 VRB06KT P6SM -SHRA SCT030 BKN060=



000
FTUS45 KPIH 211700
TAFIDA
TAF
KIDA 211720Z 2118/2218 VRB05KT P6SM SCT250
     FM212000 22011KT P6SM BKN250
     FM220600 18009KT P6SM BKN090=



000
FTUS45 KPIH 211700
TAFBYI
TAF
KBYI 211720Z 2118/2218 05010KT P6SM SCT250
     FM220400 21010KT P6SM BKN100=



000
FTUS45 KPIH 211700
TAFPIH
TAF
KPIH 211720Z 2118/2218 05007KT P6SM SCT250
     FM212100 21010KT P6SM BKN250
     FM220600 19011KT P6SM BKN090=



    US Dept of Commerce
    National Oceanic and Atmospheric Administration
    National Weather Service
    1325 East West Highway
    Silver Spring, MD 20910
    Page Author: NWS Internet Services Team
Disclaimer
Information Quality
Credits
Glossary
Privacy Policy
Freedom of Information Act (FOIA)
About Us
Career Opportunities